sensor_id;sensor_type;location;lat;lon;timestamp;temperature;humidity
12887;DHT22;6511;49.746;6.094;2022-11-14T00:02:08;1.60;99.90
12887;DHT22;6511;49.746;6.094;2022-11-14T00:04:33;1.60;99.90
12887;DHT22;6511;49.746;6.094;2022-11-14T00:06:59;1.50;99.90
12887;DHT22;6511;49.746;6.094;2022-11-14T00:09:26;1.40;99.90
12887;DHT22;6511;49.746;6.094;2022-11-14T00:11:52;1.50;99.90
12887;DHT22;6511;49.746;6.094;2022-11-14T00:14:18;1.50;99.90
12887;DHT22;6511;49.746;6.094;2022-11-14T00:16:43;1.50;99.90
12887;DHT22;6511;49.746;6.094;2022-11-14T00:19:09;1.50;99.90
12887;DHT22;6511;49.746;6.094;2022-11-14T00:21:35;1.50;99.90
12887;DHT22;6511;49.746;6.094;2022-11-14T00:24:00;1.50;99.90
12887;DHT22;6511;49.746;6.094;2022-11-14T00:26:26;1.40;99.90
12887;DHT22;6511;49.746;6.094;2022-11-14T00:28:53;1.40;99.90
12887;DHT22;6511;49.746;6.094;2022-11-14T00:31:19;1.30;99.90
12887;DHT22;6511;49.746;6.094;2022-11-14T00:33:45;1.30;99.90
12887;DHT22;6511;49.746;6.094;2022-11-14T00:36:11;1.40;99.90
12887;DHT22;6511;49.746;6.094;2022-11-14T00:38:36;1.30;99.90
12887;DHT22;6511;49.746;6.094;2022-11-14T00:41:02;1.40;99.90
12887;DHT22;6511;49.746;6.094;2022-11-14T00:43:28;1.40;99.90
12887;DHT22;6511;49.746;6.094;2022-11-14T00:45:53;1.40;99.90
12887;DHT22;6511;49.746;6.094;2022-11-14T00:48:19;1.40;99.90
12887;DHT22;6511;49.746;6.094;2022-11-14T00:50:45;1.30;99.90
12887;DHT22;6511;49.746;6.094;2022-11-14T00:53:10;1.20;99.90
12887;DHT22;6511;49.746;6.094;2022-11-14T00:55:36;1.30;99.90
12887;DHT22;6511;49.746;6.094;2022-11-14T00:58:02;1.30;99.90
12887;DHT22;6511;49.746;6.094;2022-11-14T01:00:28;1.30;99.90
12887;DHT22;6511;49.746;6.094;2022-11-14T01:02:53;1.30;99.90
12887;DHT22;6511;49.746;6.094;2022-11-14T01:05:26;1.30;99.90
12887;DHT22;6511;49.746;6.094;2022-11-14T01:07:51;1.20;99.90
12887;DHT22;6511;49.746;6.094;2022-11-14T01:10:17;1.10;99.90
12887;DHT22;6511;49.746;6.094;2022-11-14T01:12:43;1.00;99.90
12887;DHT22;6511;49.746;6.094;2022-11-14T01:15:09;1.00;99.90
12887;DHT22;6511;49.746;6.094;2022-11-14T01:17:35;1.00;99.90
12887;DHT22;6511;49.746;6.094;2022-11-14T01:20:01;1.00;99.90
12887;DHT22;6511;49.746;6.094;2022-11-14T01:22:28;1.00;99.90
12887;DHT22;6511;49.746;6.094;2022-11-14T01:24:54;1.10;99.90
12887;DHT22;6511;49.746;6.094;2022-11-14T01:27:23;1.10;99.90
12887;DHT22;6511;49.746;6.094;2022-11-14T01:29:49;1.30;99.90
12887;DHT22;6511;49.746;6.094;2022-11-14T01:32:14;1.50;99.90
12887;DHT22;6511;49.746;6.094;2022-11-14T01:34:40;1.60;99.90
12887;DHT22;6511;49.746;6.094;2022-11-14T01:37:06;1.70;99.90
12887;DHT22;6511;49.746;6.094;2022-11-14T01:39:31;1.80;99.90
12887;DHT22;6511;49.746;6.094;2022-11-14T01:41:57;1.80;99.90
12887;DHT22;6511;49.746;6.094;2022-11-14T01:47:11;1.80;99.90
12887;DHT22;6511;49.746;6.094;2022-11-14T01:49:41;1.70;99.90
12887;DHT22;6511;49.746;6.094;2022-11-14T01:52:12;1.60;99.90
12887;DHT22;6511;49.746;6.094;2022-11-14T01:54:42;1.60;99.90
12887;DHT22;6511;49.746;6.094;2022-11-14T01:57:11;1.70;99.90
12887;DHT22;6511;49.746;6.094;2022-11-14T01:59:45;1.80;99.90
12887;DHT22;6511;49.746;6.094;2022-11-14T02:02:15;1.80;99.90
12887;DHT22;6511;49.746;6.094;2022-11-14T02:04:48;1.90;99.90
12887;DHT22;6511;49.746;6.094;2022-11-14T02:07:15;2.00;99.90
12887;DHT22;6511;49.746;6.094;2022-11-14T02:09:45;2.00;99.90
12887;DHT22;6511;49.746;6.094;2022-11-14T02:12:13;2.10;99.90
12887;DHT22;6511;49.746;6.094;2022-11-14T02:14:40;2.20;99.90
12887;DHT22;6511;49.746;6.094;2022-11-14T02:17:07;2.30;99.90
12887;DHT22;6511;49.746;6.094;2022-11-14T02:19:44;2.30;99.90
12887;DHT22;6511;49.746;6.094;2022-11-14T02:22:10;2.40;99.90
12887;DHT22;6511;49.746;6.094;2022-11-14T02:24:35;2.40;99.90
12887;DHT22;6511;49.746;6.094;2022-11-14T02:27:04;2.40;99.90
12887;DHT22;6511;49.746;6.094;2022-11-14T02:29:34;2.50;99.90
12887;DHT22;6511;49.746;6.094;2022-11-14T02:32:00;2.60;99.90
12887;DHT22;6511;49.746;6.094;2022-11-14T02:34:26;2.70;99.90
12887;DHT22;6511;49.746;6.094;2022-11-14T02:36:52;2.80;99.90
12887;DHT22;6511;49.746;6.094;2022-11-14T02:39:18;2.80;99.90
12887;DHT22;6511;49.746;6.094;2022-11-14T02:41:43;2.80;99.90
12887;DHT22;6511;49.746;6.094;2022-11-14T02:44:09;2.90;99.90
12887;DHT22;6511;49.746;6.094;2022-11-14T02:46:35;2.90;99.90
12887;DHT22;6511;49.746;6.094;2022-11-14T02:49:00;3.00;99.90
12887;DHT22;6511;49.746;6.094;2022-11-14T02:51:26;3.00;99.90
12887;DHT22;6511;49.746;6.094;2022-11-14T02:53:52;3.00;99.90
12887;DHT22;6511;49.746;6.094;2022-11-14T02:56:17;3.10;99.90
12887;DHT22;6511;49.746;6.094;2022-11-14T02:58:43;3.10;99.90
12887;DHT22;6511;49.746;6.094;2022-11-14T03:01:09;3.10;99.90
12887;DHT22;6511;49.746;6.094;2022-11-14T03:03:34;3.20;99.90
12887;DHT22;6511;49.746;6.094;2022-11-14T03:06:01;3.20;99.90
12887;DHT22;6511;49.746;6.094;2022-11-14T03:08:27;3.20;99.90
12887;DHT22;6511;49.746;6.094;2022-11-14T03:10:53;3.30;99.90
12887;DHT22;6511;49.746;6.094;2022-11-14T03:13:19;3.30;99.90
12887;DHT22;6511;49.746;6.094;2022-11-14T03:15:45;3.40;99.90
12887;DHT22;6511;49.746;6.094;2022-11-14T03:18:10;3.50;99.90
12887;DHT22;6511;49.746;6.094;2022-11-14T03:20:36;3.50;99.90
12887;DHT22;6511;49.746;6.094;2022-11-14T03:23:02;3.60;99.90
12887;DHT22;6511;49.746;6.094;2022-11-14T03:25:28;3.70;99.90
12887;DHT22;6511;49.746;6.094;2022-11-14T03:27:53;3.70;99.90
12887;DHT22;6511;49.746;6.094;2022-11-14T03:30:19;3.70;99.90
12887;DHT22;6511;49.746;6.094;2022-11-14T03:32:45;3.70;99.90
12887;DHT22;6511;49.746;6.094;2022-11-14T03:35:10;3.70;99.90
12887;DHT22;6511;49.746;6.094;2022-11-14T03:37:36;3.70;99.90
12887;DHT22;6511;49.746;6.094;2022-11-14T03:40:02;3.70;99.90
12887;DHT22;6511;49.746;6.094;2022-11-14T03:42:32;3.80;99.90
12887;DHT22;6511;49.746;6.094;2022-11-14T03:44:58;3.80;99.90
12887;DHT22;6511;49.746;6.094;2022-11-14T03:47:24;3.80;99.90
12887;DHT22;6511;49.746;6.094;2022-11-14T03:49:49;3.90;99.90
12887;DHT22;6511;49.746;6.094;2022-11-14T03:52:15;3.80;99.90
12887;DHT22;6511;49.746;6.094;2022-11-14T03:54:41;3.90;99.90
12887;DHT22;6511;49.746;6.094;2022-11-14T03:57:06;4.00;99.90
12887;DHT22;6511;49.746;6.094;2022-11-14T03:59:32;4.00;99.90
12887;DHT22;6511;49.746;6.094;2022-11-14T04:01:57;4.00;99.90
12887;DHT22;6511;49.746;6.094;2022-11-14T04:04:23;4.10;99.90
12887;DHT22;6511;49.746;6.094;2022-11-14T04:06:49;4.10;99.90
12887;DHT22;6511;49.746;6.094;2022-11-14T04:09:14;4.20;99.90
12887;DHT22;6511;49.746;6.094;2022-11-14T04:11:40;4.20;99.90
12887;DHT22;6511;49.746;6.094;2022-11-14T04:14:06;4.30;99.90
12887;DHT22;6511;49.746;6.094;2022-11-14T04:16:31;4.30;99.90
12887;DHT22;6511;49.746;6.094;2022-11-14T04:18:57;4.50;99.90
12887;DHT22;6511;49.746;6.094;2022-11-14T04:21:22;4.50;99.90
12887;DHT22;6511;49.746;6.094;2022-11-14T04:23:48;4.50;99.90
12887;DHT22;6511;49.746;6.094;2022-11-14T04:26:14;4.50;99.90
12887;DHT22;6511;49.746;6.094;2022-11-14T04:28:39;4.60;99.90
12887;DHT22;6511;49.746;6.094;2022-11-14T04:31:05;4.50;99.90
12887;DHT22;6511;49.746;6.094;2022-11-14T04:33:30;4.60;99.90
12887;DHT22;6511;49.746;6.094;2022-11-14T04:35:56;4.50;99.90
12887;DHT22;6511;49.746;6.094;2022-11-14T04:38:22;4.50;99.90
12887;DHT22;6511;49.746;6.094;2022-11-14T04:40:51;4.50;99.90
12887;DHT22;6511;49.746;6.094;2022-11-14T04:43:18;4.50;99.90
12887;DHT22;6511;49.746;6.094;2022-11-14T04:45:45;4.50;99.90
12887;DHT22;6511;49.746;6.094;2022-11-14T04:48:11;4.50;99.90
12887;DHT22;6511;49.746;6.094;2022-11-14T04:50:37;4.50;99.90
12887;DHT22;6511;49.746;6.094;2022-11-14T04:53:03;4.60;99.90
12887;DHT22;6511;49.746;6.094;2022-11-14T04:55:30;4.60;99.90
12887;DHT22;6511;49.746;6.094;2022-11-14T04:57:56;4.70;99.90
12887;DHT22;6511;49.746;6.094;2022-11-14T05:00:22;4.70;99.90
12887;DHT22;6511;49.746;6.094;2022-11-14T05:02:48;4.70;99.90
12887;DHT22;6511;49.746;6.094;2022-11-14T05:05:14;4.80;99.90
12887;DHT22;6511;49.746;6.094;2022-11-14T05:07:40;4.80;99.90
12887;DHT22;6511;49.746;6.094;2022-11-14T05:10:06;4.80;99.90
12887;DHT22;6511;49.746;6.094;2022-11-14T05:12:32;4.90;99.90
12887;DHT22;6511;49.746;6.094;2022-11-14T05:14:58;4.90;99.90
12887;DHT22;6511;49.746;6.094;2022-11-14T05:17:24;5.00;99.90
12887;DHT22;6511;49.746;6.094;2022-11-14T05:19:50;5.00;99.90
12887;DHT22;6511;49.746;6.094;2022-11-14T05:22:15;5.00;99.90
12887;DHT22;6511;49.746;6.094;2022-11-14T05:24:41;5.10;99.90
12887;DHT22;6511;49.746;6.094;2022-11-14T05:27:06;5.10;99.90
12887;DHT22;6511;49.746;6.094;2022-11-14T05:29:32;5.10;99.90
12887;DHT22;6511;49.746;6.094;2022-11-14T05:31:58;5.10;99.90
12887;DHT22;6511;49.746;6.094;2022-11-14T05:34:25;5.10;99.90
12887;DHT22;6511;49.746;6.094;2022-11-14T05:36:50;5.10;99.90
12887;DHT22;6511;49.746;6.094;2022-11-14T05:39:16;5.10;99.90
12887;DHT22;6511;49.746;6.094;2022-11-14T05:41:42;5.10;99.90
12887;DHT22;6511;49.746;6.094;2022-11-14T05:44:07;5.20;99.90
12887;DHT22;6511;49.746;6.094;2022-11-14T05:46:33;5.10;99.90
12887;DHT22;6511;49.746;6.094;2022-11-14T05:48:59;5.10;99.90
12887;DHT22;6511;49.746;6.094;2022-11-14T05:51:25;5.10;99.90
12887;DHT22;6511;49.746;6.094;2022-11-14T05:53:51;5.10;99.90
12887;DHT22;6511;49.746;6.094;2022-11-14T05:56:17;5.20;99.90
12887;DHT22;6511;49.746;6.094;2022-11-14T05:58:42;5.20;99.90
12887;DHT22;6511;49.746;6.094;2022-11-14T06:01:13;5.20;99.90
12887;DHT22;6511;49.746;6.094;2022-11-14T06:03:45;5.20;99.90
12887;DHT22;6511;49.746;6.094;2022-11-14T06:06:14;5.20;99.90
12887;DHT22;6511;49.746;6.094;2022-11-14T06:08:40;5.30;99.90
12887;DHT22;6511;49.746;6.094;2022-11-14T06:11:11;5.30;99.90
12887;DHT22;6511;49.746;6.094;2022-11-14T06:13:37;5.30;99.90
12887;DHT22;6511;49.746;6.094;2022-11-14T06:16:09;5.40;99.90
12887;DHT22;6511;49.746;6.094;2022-11-14T06:18:36;5.40;99.90
12887;DHT22;6511;49.746;6.094;2022-11-14T06:21:05;5.40;99.90
12887;DHT22;6511;49.746;6.094;2022-11-14T06:23:31;5.30;99.90
12887;DHT22;6511;49.746;6.094;2022-11-14T06:26:00;5.40;99.90
12887;DHT22;6511;49.746;6.094;2022-11-14T06:28:26;5.40;99.90
12887;DHT22;6511;49.746;6.094;2022-11-14T06:30:56;5.40;99.90
12887;DHT22;6511;49.746;6.094;2022-11-14T06:33:22;5.40;99.90
12887;DHT22;6511;49.746;6.094;2022-11-14T06:35:47;5.50;99.90
12887;DHT22;6511;49.746;6.094;2022-11-14T06:38:13;5.50;99.90
12887;DHT22;6511;49.746;6.094;2022-11-14T06:40:38;5.50;99.90
12887;DHT22;6511;49.746;6.094;2022-11-14T06:43:04;5.50;99.90
12887;DHT22;6511;49.746;6.094;2022-11-14T06:45:30;5.50;99.90
12887;DHT22;6511;49.746;6.094;2022-11-14T06:47:58;5.50;99.90
12887;DHT22;6511;49.746;6.094;2022-11-14T06:50:24;5.50;99.90
12887;DHT22;6511;49.746;6.094;2022-11-14T06:52:50;5.50;99.90
12887;DHT22;6511;49.746;6.094;2022-11-14T06:55:16;5.50;99.90
12887;DHT22;6511;49.746;6.094;2022-11-14T06:57:42;5.60;99.90
12887;DHT22;6511;49.746;6.094;2022-11-14T07:00:08;5.50;99.90
12887;DHT22;6511;49.746;6.094;2022-11-14T07:02:33;5.50;99.90
12887;DHT22;6511;49.746;6.094;2022-11-14T07:04:59;5.60;99.90
12887;DHT22;6511;49.746;6.094;2022-11-14T07:07:25;5.60;99.90
12887;DHT22;6511;49.746;6.094;2022-11-14T07:09:50;5.60;99.90
12887;DHT22;6511;49.746;6.094;2022-11-14T07:12:16;5.60;99.90
12887;DHT22;6511;49.746;6.094;2022-11-14T07:14:41;5.60;99.90
12887;DHT22;6511;49.746;6.094;2022-11-14T07:17:07;5.60;99.90
12887;DHT22;6511;49.746;6.094;2022-11-14T07:19:32;5.60;99.90
12887;DHT22;6511;49.746;6.094;2022-11-14T07:21:58;5.60;99.90
12887;DHT22;6511;49.746;6.094;2022-11-14T07:24:24;5.60;99.90
12887;DHT22;6511;49.746;6.094;2022-11-14T07:26:49;5.60;99.90
12887;DHT22;6511;49.746;6.094;2022-11-14T07:29:15;5.60;99.90
12887;DHT22;6511;49.746;6.094;2022-11-14T07:31:41;5.60;99.90
12887;DHT22;6511;49.746;6.094;2022-11-14T07:34:07;5.60;99.90
12887;DHT22;6511;49.746;6.094;2022-11-14T07:36:33;5.60;99.90
12887;DHT22;6511;49.746;6.094;2022-11-14T07:38:59;5.60;99.90
12887;DHT22;6511;49.746;6.094;2022-11-14T07:41:24;5.60;99.90
12887;DHT22;6511;49.746;6.094;2022-11-14T07:43:50;5.60;99.90
12887;DHT22;6511;49.746;6.094;2022-11-14T07:46:17;5.50;99.90
12887;DHT22;6511;49.746;6.094;2022-11-14T07:48:43;5.60;99.90
12887;DHT22;6511;49.746;6.094;2022-11-14T07:51:14;5.60;99.90
12887;DHT22;6511;49.746;6.094;2022-11-14T07:53:40;5.60;99.90
12887;DHT22;6511;49.746;6.094;2022-11-14T07:56:07;5.50;99.90
12887;DHT22;6511;49.746;6.094;2022-11-14T07:58:37;5.40;99.90
12887;DHT22;6511;49.746;6.094;2022-11-14T08:01:04;5.30;99.90
12887;DHT22;6511;49.746;6.094;2022-11-14T08:03:30;5.30;99.90
12887;DHT22;6511;49.746;6.094;2022-11-14T08:06:05;5.20;99.90
12887;DHT22;6511;49.746;6.094;2022-11-14T08:08:32;5.20;99.90
12887;DHT22;6511;49.746;6.094;2022-11-14T08:10:58;5.20;99.90
12887;DHT22;6511;49.746;6.094;2022-11-14T08:13:24;5.30;99.90
12887;DHT22;6511;49.746;6.094;2022-11-14T08:15:50;5.20;99.90
12887;DHT22;6511;49.746;6.094;2022-11-14T08:18:16;5.30;99.90
12887;DHT22;6511;49.746;6.094;2022-11-14T08:20:41;5.40;99.90
12887;DHT22;6511;49.746;6.094;2022-11-14T08:23:09;5.40;99.90
12887;DHT22;6511;49.746;6.094;2022-11-14T08:25:35;5.40;99.90
12887;DHT22;6511;49.746;6.094;2022-11-14T08:28:00;5.50;99.90
12887;DHT22;6511;49.746;6.094;2022-11-14T08:30:27;5.50;99.90
12887;DHT22;6511;49.746;6.094;2022-11-14T08:32:52;5.50;99.90
12887;DHT22;6511;49.746;6.094;2022-11-14T08:35:18;5.50;99.90
12887;DHT22;6511;49.746;6.094;2022-11-14T08:37:44;5.50;99.90
12887;DHT22;6511;49.746;6.094;2022-11-14T08:40:10;5.50;99.90
12887;DHT22;6511;49.746;6.094;2022-11-14T08:42:36;5.40;99.90
12887;DHT22;6511;49.746;6.094;2022-11-14T08:45:03;5.50;99.90
12887;DHT22;6511;49.746;6.094;2022-11-14T08:47:28;5.40;99.90
12887;DHT22;6511;49.746;6.094;2022-11-14T08:49:54;5.50;99.90
12887;DHT22;6511;49.746;6.094;2022-11-14T08:52:21;5.50;99.90
12887;DHT22;6511;49.746;6.094;2022-11-14T08:54:46;5.60;99.90
12887;DHT22;6511;49.746;6.094;2022-11-14T08:57:12;5.70;99.90
12887;DHT22;6511;49.746;6.094;2022-11-14T08:59:40;5.70;99.90
12887;DHT22;6511;49.746;6.094;2022-11-14T09:02:09;5.60;99.90
12887;DHT22;6511;49.746;6.094;2022-11-14T09:04:35;5.60;99.90
12887;DHT22;6511;49.746;6.094;2022-11-14T09:07:01;5.60;99.90
12887;DHT22;6511;49.746;6.094;2022-11-14T09:09:27;5.60;99.90
12887;DHT22;6511;49.746;6.094;2022-11-14T09:11:52;5.70;99.90
12887;DHT22;6511;49.746;6.094;2022-11-14T09:14:18;5.70;99.90
12887;DHT22;6511;49.746;6.094;2022-11-14T09:16:46;5.80;99.90
12887;DHT22;6511;49.746;6.094;2022-11-14T09:19:12;5.90;99.90
12887;DHT22;6511;49.746;6.094;2022-11-14T09:21:44;6.00;99.90
12887;DHT22;6511;49.746;6.094;2022-11-14T09:24:17;6.10;99.90
12887;DHT22;6511;49.746;6.094;2022-11-14T09:26:46;6.20;99.90
12887;DHT22;6511;49.746;6.094;2022-11-14T09:29:19;6.20;99.90
12887;DHT22;6511;49.746;6.094;2022-11-14T09:31:50;6.30;99.90
12887;DHT22;6511;49.746;6.094;2022-11-14T09:44:48;6.40;99.90
12887;DHT22;6511;49.746;6.094;2022-11-14T09:47:31;6.40;99.90
12887;DHT22;6511;49.746;6.094;2022-11-14T09:50:12;6.40;99.90
12887;DHT22;6511;49.746;6.094;2022-11-14T09:52:59;6.50;99.90
12887;DHT22;6511;49.746;6.094;2022-11-14T09:55:31;6.50;99.90
12887;DHT22;6511;49.746;6.094;2022-11-14T09:57:57;6.50;99.90
12887;DHT22;6511;49.746;6.094;2022-11-14T10:00:25;6.60;99.90
12887;DHT22;6511;49.746;6.094;2022-11-14T10:08:41;6.50;99.90
12887;DHT22;6511;49.746;6.094;2022-11-14T10:11:15;6.50;99.90
12887;DHT22;6511;49.746;6.094;2022-11-14T10:23:13;6.40;99.90
12887;DHT22;6511;49.746;6.094;2022-11-14T10:25:50;6.40;99.90
12887;DHT22;6511;49.746;6.094;2022-11-14T10:31:47;6.60;99.90
12887;DHT22;6511;49.746;6.094;2022-11-14T10:34:55;6.70;99.90
12887;DHT22;6511;49.746;6.094;2022-11-14T10:37:28;6.80;99.90
12887;DHT22;6511;49.746;6.094;2022-11-14T10:40:08;6.90;99.90
12887;DHT22;6511;49.746;6.094;2022-11-14T10:42:39;6.90;99.90
12887;DHT22;6511;49.746;6.094;2022-11-14T10:45:36;7.00;99.90
12887;DHT22;6511;49.746;6.094;2022-11-14T10:48:13;7.00;99.90
12887;DHT22;6511;49.746;6.094;2022-11-14T10:50:53;7.00;99.90
12887;DHT22;6511;49.746;6.094;2022-11-14T10:56:10;7.00;99.90
12887;DHT22;6511;49.746;6.094;2022-11-14T10:58:37;7.10;99.90
12887;DHT22;6511;49.746;6.094;2022-11-14T11:01:31;7.10;99.90
12887;DHT22;6511;49.746;6.094;2022-11-14T11:06:38;7.00;99.90
12887;DHT22;6511;49.746;6.094;2022-11-14T11:09:10;7.00;99.90
12887;DHT22;6511;49.746;6.094;2022-11-14T11:11:58;7.10;99.90
12887;DHT22;6511;49.746;6.094;2022-11-14T11:14:26;7.20;99.90
12887;DHT22;6511;49.746;6.094;2022-11-14T11:17:15;7.30;99.90
12887;DHT22;6511;49.746;6.094;2022-11-14T11:19:41;7.30;99.90
12887;DHT22;6511;49.746;6.094;2022-11-14T11:24:55;7.40;99.90
12887;DHT22;6511;49.746;6.094;2022-11-14T11:27:25;7.50;99.90
12887;DHT22;6511;49.746;6.094;2022-11-14T11:30:20;7.50;99.90
12887;DHT22;6511;49.746;6.094;2022-11-14T11:32:47;7.50;99.90
12887;DHT22;6511;49.746;6.094;2022-11-14T11:35:14;7.50;99.90
12887;DHT22;6511;49.746;6.094;2022-11-14T11:37:48;7.50;99.90
12887;DHT22;6511;49.746;6.094;2022-11-14T11:40:24;7.60;99.90
12887;DHT22;6511;49.746;6.094;2022-11-14T11:45:24;7.70;99.90
12887;DHT22;6511;49.746;6.094;2022-11-14T11:48:00;7.80;99.90
12887;DHT22;6511;49.746;6.094;2022-11-14T11:50:25;7.80;99.90
12887;DHT22;6511;49.746;6.094;2022-11-14T11:55:31;8.00;99.90
12887;DHT22;6511;49.746;6.094;2022-11-14T11:58:05;7.90;99.90
12887;DHT22;6511;49.746;6.094;2022-11-14T12:00:31;7.90;99.90
12887;DHT22;6511;49.746;6.094;2022-11-14T12:02:58;7.90;99.90
12887;DHT22;6511;49.746;6.094;2022-11-14T12:11:24;7.90;99.90
12887;DHT22;6511;49.746;6.094;2022-11-14T12:17:06;8.00;99.90
12887;DHT22;6511;49.746;6.094;2022-11-14T12:25:03;8.00;99.90
12887;DHT22;6511;49.746;6.094;2022-11-14T12:27:48;8.00;99.90
12887;DHT22;6511;49.746;6.094;2022-11-14T12:30:20;8.10;99.90
12887;DHT22;6511;49.746;6.094;2022-11-14T12:32:53;8.00;99.90
12887;DHT22;6511;49.746;6.094;2022-11-14T12:35:28;8.00;99.90
12887;DHT22;6511;49.746;6.094;2022-11-14T12:37:56;8.00;99.90
12887;DHT22;6511;49.746;6.094;2022-11-14T12:40:35;7.90;99.90
12887;DHT22;6511;49.746;6.094;2022-11-14T12:43:02;7.90;99.90
12887;DHT22;6511;49.746;6.094;2022-11-14T12:50:54;7.90;99.90
12887;DHT22;6511;49.746;6.094;2022-11-14T12:56:20;8.00;99.90
12887;DHT22;6511;49.746;6.094;2022-11-14T13:04:31;8.10;99.90
12887;DHT22;6511;49.746;6.094;2022-11-14T13:07:09;8.10;99.90
12887;DHT22;6511;49.746;6.094;2022-11-14T13:12:29;8.00;99.90
12887;DHT22;6511;49.746;6.094;2022-11-14T13:15:29;8.00;99.90
12887;DHT22;6511;49.746;6.094;2022-11-14T13:21:03;8.10;99.90
12887;DHT22;6511;49.746;6.094;2022-11-14T13:28:47;8.20;99.90
12887;DHT22;6511;49.746;6.094;2022-11-14T13:33:49;8.20;99.90
12887;DHT22;6511;49.746;6.094;2022-11-14T13:36:43;8.20;99.90
12887;DHT22;6511;49.746;6.094;2022-11-14T13:42:33;8.10;99.90
12887;DHT22;6511;49.746;6.094;2022-11-14T13:45:33;8.10;99.90
12887;DHT22;6511;49.746;6.094;2022-11-14T13:51:08;8.10;99.90
12887;DHT22;6511;49.746;6.094;2022-11-14T13:53:37;8.00;99.90
12887;DHT22;6511;49.746;6.094;2022-11-14T13:56:07;7.90;99.90
12887;DHT22;6511;49.746;6.094;2022-11-14T14:06:55;7.60;99.90
12887;DHT22;6511;49.746;6.094;2022-11-14T14:15:04;7.70;99.90
12887;DHT22;6511;49.746;6.094;2022-11-14T14:23:27;7.80;99.90
12887;DHT22;6511;49.746;6.094;2022-11-14T14:28:53;7.80;99.90
12887;DHT22;6511;49.746;6.094;2022-11-14T14:31:21;7.80;99.90
12887;DHT22;6511;49.746;6.094;2022-11-14T14:33:49;7.80;99.90
12887;DHT22;6511;49.746;6.094;2022-11-14T14:36:29;7.80;99.90
12887;DHT22;6511;49.746;6.094;2022-11-14T14:39:15;7.90;99.90
12887;DHT22;6511;49.746;6.094;2022-11-14T14:41:41;7.90;99.90
12887;DHT22;6511;49.746;6.094;2022-11-14T14:44:29;7.80;99.90
12887;DHT22;6511;49.746;6.094;2022-11-14T14:46:56;7.80;99.90
12887;DHT22;6511;49.746;6.094;2022-11-14T14:49:29;7.80;99.90
12887;DHT22;6511;49.746;6.094;2022-11-14T14:51:56;7.80;99.90
12887;DHT22;6511;49.746;6.094;2022-11-14T14:54:24;7.80;99.90
12887;DHT22;6511;49.746;6.094;2022-11-14T14:56:57;7.90;99.90
12887;DHT22;6511;49.746;6.094;2022-11-14T14:59:29;7.90;99.90
12887;DHT22;6511;49.746;6.094;2022-11-14T15:01:56;7.90;99.90
12887;DHT22;6511;49.746;6.094;2022-11-14T15:04:25;7.90;99.90
12887;DHT22;6511;49.746;6.094;2022-11-14T15:06:52;7.90;99.90
12887;DHT22;6511;49.746;6.094;2022-11-14T15:09:27;7.90;99.90
12887;DHT22;6511;49.746;6.094;2022-11-14T15:11:59;7.80;99.90
12887;DHT22;6511;49.746;6.094;2022-11-14T15:14:28;7.80;99.90
12887;DHT22;6511;49.746;6.094;2022-11-14T15:16:55;7.80;99.90
12887;DHT22;6511;49.746;6.094;2022-11-14T15:19:24;7.80;99.90
12887;DHT22;6511;49.746;6.094;2022-11-14T15:24:35;7.80;99.90
12887;DHT22;6511;49.746;6.094;2022-11-14T15:27:12;7.80;99.90
12887;DHT22;6511;49.746;6.094;2022-11-14T15:29:50;7.70;99.90
12887;DHT22;6511;49.746;6.094;2022-11-14T15:32:24;7.80;99.90
12887;DHT22;6511;49.746;6.094;2022-11-14T15:35:27;7.80;99.90
12887;DHT22;6511;49.746;6.094;2022-11-14T15:40:38;7.70;99.90
12887;DHT22;6511;49.746;6.094;2022-11-14T15:46:04;7.60;99.90
12887;DHT22;6511;49.746;6.094;2022-11-14T15:48:48;7.60;99.90
12887;DHT22;6511;49.746;6.094;2022-11-14T15:51:14;7.50;99.90
12887;DHT22;6511;49.746;6.094;2022-11-14T15:53:44;7.50;99.90
12887;DHT22;6511;49.746;6.094;2022-11-14T15:56:11;7.60;99.90
12887;DHT22;6511;49.746;6.094;2022-11-14T15:58:38;7.60;99.90
12887;DHT22;6511;49.746;6.094;2022-11-14T16:01:03;7.60;99.90
12887;DHT22;6511;49.746;6.094;2022-11-14T16:03:29;7.60;99.90
12887;DHT22;6511;49.746;6.094;2022-11-14T16:05:55;7.50;99.90
12887;DHT22;6511;49.746;6.094;2022-11-14T16:08:21;7.60;99.90
12887;DHT22;6511;49.746;6.094;2022-11-14T16:10:46;7.70;99.90
12887;DHT22;6511;49.746;6.094;2022-11-14T16:13:12;7.60;99.90
12887;DHT22;6511;49.746;6.094;2022-11-14T16:15:38;7.50;99.90
12887;DHT22;6511;49.746;6.094;2022-11-14T16:18:04;7.50;99.90
12887;DHT22;6511;49.746;6.094;2022-11-14T16:20:30;7.60;99.90
12887;DHT22;6511;49.746;6.094;2022-11-14T16:23:01;7.60;99.90
12887;DHT22;6511;49.746;6.094;2022-11-14T16:25:29;7.60;99.90
12887;DHT22;6511;49.746;6.094;2022-11-14T16:27:55;7.60;99.90
12887;DHT22;6511;49.746;6.094;2022-11-14T16:30:22;7.50;99.90
12887;DHT22;6511;49.746;6.094;2022-11-14T16:32:48;7.60;99.90
12887;DHT22;6511;49.746;6.094;2022-11-14T16:35:25;7.60;99.90
12887;DHT22;6511;49.746;6.094;2022-11-14T16:37:51;7.60;99.90
12887;DHT22;6511;49.746;6.094;2022-11-14T16:40:20;7.60;99.90
12887;DHT22;6511;49.746;6.094;2022-11-14T16:42:48;7.60;99.90
12887;DHT22;6511;49.746;6.094;2022-11-14T16:45:17;7.60;99.90
12887;DHT22;6511;49.746;6.094;2022-11-14T16:47:45;7.70;99.90
12887;DHT22;6511;49.746;6.094;2022-11-14T16:50:10;7.70;99.90
12887;DHT22;6511;49.746;6.094;2022-11-14T16:52:37;7.70;99.90
12887;DHT22;6511;49.746;6.094;2022-11-14T16:55:07;7.70;99.90
12887;DHT22;6511;49.746;6.094;2022-11-14T16:57:36;7.80;99.90
12887;DHT22;6511;49.746;6.094;2022-11-14T17:00:14;7.80;99.90
12887;DHT22;6511;49.746;6.094;2022-11-14T17:02:42;7.80;99.90
12887;DHT22;6511;49.746;6.094;2022-11-14T17:05:10;7.80;99.90
12887;DHT22;6511;49.746;6.094;2022-11-14T17:07:38;7.70;99.90
12887;DHT22;6511;49.746;6.094;2022-11-14T17:10:05;7.80;99.90
12887;DHT22;6511;49.746;6.094;2022-11-14T17:12:32;7.80;99.90
12887;DHT22;6511;49.746;6.094;2022-11-14T17:15:21;7.80;99.90
12887;DHT22;6511;49.746;6.094;2022-11-14T17:17:47;7.80;99.90
12887;DHT22;6511;49.746;6.094;2022-11-14T17:20:15;7.80;99.90
12887;DHT22;6511;49.746;6.094;2022-11-14T17:22:44;7.90;99.90
12887;DHT22;6511;49.746;6.094;2022-11-14T17:28:14;7.90;99.90
12887;DHT22;6511;49.746;6.094;2022-11-14T17:37:40;8.00;99.90
